Time;durP1;ratioP1;P1;durP2;ratioP2;P2;SDS_P1;SDS_P2;PMS_P1;PMS_P2;Temp;Humidity;BMP_temperature;BMP_pressure;BME280_temperature;BME280_humidity;BME280_pressure;Samples;Min_cycle;Max_cycle;Signal;HPM_P1;HPM_P2
2023/08/20 11:56:06;;;;;;;0.10;0.10;;;;;;;29.36;39.06;101097.75;7391731;19;20731;-60
2023/08/20 11:58:32;;;;;;;0.10;0.10;;;;;;;29.94;36.24;101102.88;7394031;19;20601;-60
2023/08/20 12:00:57;;;;;;;0.03;0.03;;;;;;;30.38;34.86;101116.53;7383506;19;19998;-58
2023/08/20 12:03:29;;;;;;;0.10;0.10;;;;;;;30.74;36.65;101118.25;7371057;19;20034;-61
2023/08/20 12:05:54;;;;;;;0.10;0.10;;;;;;;30.78;34.43;101112.53;7385527;19;20015;-60
2023/08/20 12:08:20;;;;;;;0.10;0.10;;;;;;;30.87;34.75;101103.50;7388734;19;20886;-60
2023/08/20 12:10:45;;;;;;;0.10;0.10;;;;;;;30.98;34.62;101097.88;7384976;19;20081;-60
2023/08/20 12:13:11;;;;;;;0.10;0.10;;;;;;;31.18;33.78;101087.72;7393080;19;20014;-61
2023/08/20 12:15:36;;;;;;;0.10;0.10;;;;;;;31.35;33.86;101102.16;7390460;19;20128;-62
2023/08/20 12:18:06;;;;;;;0.10;0.10;;;;;;;31.52;34.71;101103.94;7393473;19;20431;-61
2023/08/20 12:20:33;;;;;;;0.00;0.00;;;;;;;31.58;34.48;101094.34;7386297;19;20007;-59
2023/08/20 12:23:01;;;;;;;0.10;0.10;;;;;;;31.63;33.98;101100.97;7365161;19;20639;-58
2023/08/20 12:25:29;;;;;;;0.00;0.00;;;;;;;31.56;32.28;101102.59;7390842;19;20014;-59
2023/08/20 12:27:54;;;;;;;0.00;0.00;;;;;;;31.48;32.15;101099.88;7380562;19;20018;-58
2023/08/20 12:30:20;;;;;;;0.10;0.10;;;;;;;31.38;32.39;101088.38;7385664;19;20020;-58
2023/08/20 12:32:45;;;;;;;0.10;0.10;;;;;;;31.33;33.14;101098.78;7386573;19;20983;-59
2023/08/20 12:35:11;;;;;;;0.10;0.10;;;;;;;31.38;33.45;101088.38;7388192;19;20010;-58
2023/08/20 12:37:36;;;;;;;0.10;0.10;;;;;;;31.44;33.16;101109.31;7390199;19;20018;-59
2023/08/20 12:40:03;;;;;;;0.00;0.00;;;;;;;31.56;33.94;101118.81;7390472;19;20010;-59
2023/08/20 12:42:29;;;;;;;0.05;0.05;;;;;;;31.62;32.30;101091.16;7392963;19;20010;-57
2023/08/20 12:44:55;;;;;;;0.10;0.10;;;;;;;31.76;32.28;101105.91;7382736;19;20459;-59
2023/08/20 12:47:20;;;;;;;0.10;0.10;;;;;;;31.88;33.35;101101.06;7384312;19;20021;-58
2023/08/20 12:49:45;;;;;;;0.10;0.10;;;;;;;32.02;32.42;101092.34;7393982;19;20021;-58
2023/08/20 12:52:11;;;;;;;0.10;0.10;;;;;;;32.16;32.70;101094.41;7396934;19;20017;-57
2023/08/20 12:54:36;;;;;;;0.10;0.10;;;;;;;32.29;32.11;101083.13;7390267;19;20111;-59
2023/08/20 12:57:02;;;;;;;0.00;0.00;;;;;;;32.38;32.60;101094.78;7369740;19;20421;-58
2023/08/20 12:59:27;;;;;;;0.10;0.10;;;;;;;32.43;31.65;101084.31;7367910;19;20009;-58
2023/08/20 13:01:53;;;;;;;0.10;0.10;;;;;;;32.43;32.45;101095.97;7370845;19;20327;-56
2023/08/20 13:04:18;;;;;;;0.10;0.10;;;;;;;32.49;32.71;101094.47;7367322;19;20021;-57
2023/08/20 13:06:44;;;;;;;0.10;0.10;;;;;;;32.60;31.95;101091.44;7371861;19;20529;-58
2023/08/20 13:09:10;;;;;;;0.10;0.10;;;;;;;32.79;30.91;101091.06;7369413;19;20103;-58
2023/08/20 13:11:38;;;;;;;0.10;0.10;;;;;;;32.94;31.08;101093.97;7374406;19;20085;-59
2023/08/20 13:14:04;;;;;;;0.10;0.10;;;;;;;33.03;31.23;101100.22;7370515;19;20584;-58
2023/08/20 13:16:29;;;;;;;0.10;0.10;;;;;;;33.15;30.89;101085.31;7371492;19;20013;-57
2023/08/20 13:18:55;;;;;;;0.10;0.10;;;;;;;33.29;31.89;101087.28;7370750;19;20010;-59
2023/08/20 13:21:21;;;;;;;0.10;0.10;;;;;;;33.47;30.40;101084.41;7370628;19;20639;-58
2023/08/20 13:23:47;;;;;;;0.10;0.10;;;;;;;33.62;31.65;101087.22;7366938;19;20451;-58
2023/08/20 13:26:12;;;;;;;0.00;0.00;;;;;;;33.82;30.51;101088.47;7368869;19;20036;-58
2023/08/20 13:28:37;;;;;;;0.10;0.10;;;;;;;34.04;30.22;101096.84;7365455;19;19999;-58
2023/08/20 13:31:03;;;;;;;0.10;0.10;;;;;;;34.18;30.49;101098.81;7372043;19;20006;-57
2023/08/20 13:33:28;;;;;;;0.10;0.10;;;;;;;34.25;30.82;101105.19;7368573;19;20488;-58
2023/08/20 13:35:54;;;;;;;0.10;0.10;;;;;;;34.36;30.22;101094.94;7368253;19;20010;-58
2023/08/20 13:38:22;;;;;;;0.10;0.10;;;;;;;34.41;30.32;101087.09;7368178;19;20034;-58
2023/08/20 13:40:47;;;;;;;0.10;0.10;;;;;;;34.57;28.70;101092.44;7368407;19;21529;-58
2023/08/20 13:43:13;;;;;;;0.10;0.10;;;;;;;34.61;28.06;101093.75;7370435;19;20007;-59
2023/08/20 13:45:38;;;;;;;0.10;0.10;;;;;;;34.57;27.99;101097.84;7367511;19;20013;-59
2023/08/20 13:48:04;;;;;;;0.10;0.10;;;;;;;34.50;29.27;101092.31;7367255;19;20001;-58
2023/08/20 13:50:30;;;;;;;0.00;0.00;;;;;;;34.34;28.42;101093.25;7367929;19;20003;-58
2023/08/20 13:52:56;;;;;;;0.10;0.10;;;;;;;34.25;28.27;101083.50;7364440;19;20002;-57
2023/08/20 13:55:21;;;;;;;0.10;0.10;;;;;;;34.12;29.28;101088.69;7364488;19;20018;-58
2023/08/20 13:57:47;;;;;;;0.10;0.10;;;;;;;33.95;28.59;101076.25;7370495;19;20389;-58
2023/08/20 14:00:13;;;;;;;0.00;0.00;;;;;;;33.98;28.76;101086.72;7368366;19;20014;-59
2023/08/20 14:02:39;;;;;;;0.10;0.10;;;;;;;33.88;29.87;101081.50;7369363;19;20501;-58
2023/08/20 14:05:05;;;;;;;0.10;0.10;;;;;;;33.89;30.25;101076.94;7363134;19;20777;-58
2023/08/20 14:07:30;;;;;;;0.10;0.10;;;;;;;33.88;30.55;101077.94;7367011;19;20010;-58
2023/08/20 14:09:56;;;;;;;0.10;0.10;;;;;;;33.87;29.62;101073.56;7367400;19;20031;-58
2023/08/20 14:12:21;;;;;;;0.10;0.10;;;;;;;33.90;30.12;101084.03;7367986;19;20021;-59
2023/08/20 14:14:47;;;;;;;0.07;0.07;;;;;;;33.93;29.46;101078.25;7367042;19;20014;-59
2023/08/20 14:17:12;;;;;;;0.10;0.10;;;;;;;33.90;28.78;101078.59;7371132;19;20006;-59
2023/08/20 14:19:38;;;;;;;0.10;0.10;;;;;;;33.81;29.27;101062.41;7360192;19;20502;-59
2023/08/20 14:22:03;;;;;;;0.10;0.10;;;;;;;33.91;29.97;101080.28;7368801;19;20078;-59
2023/08/20 14:24:28;;;;;;;0.10;0.10;;;;;;;34.04;30.22;101065.16;7362814;19;20014;-58
2023/08/20 14:26:54;;;;;;;0.10;0.10;;;;;;;34.19;29.48;101067.13;7368436;19;20006;-58
2023/08/20 14:29:19;;;;;;;0.10;0.10;;;;;;;34.34;30.02;101071.56;7362650;19;21695;-59
2023/08/20 14:31:44;;;;;;;0.10;0.10;;;;;;;34.49;28.96;101062.69;7366746;19;20010;-57
2023/08/20 14:34:10;;;;;;;0.10;0.10;;;;;;;34.63;28.55;101063.75;7368090;19;20019;-59
2023/08/20 14:36:35;;;;;;;0.10;0.10;;;;;;;34.77;28.78;101060.19;7367138;19;20426;-58
2023/08/20 14:39:01;;;;;;;0.10;0.10;;;;;;;34.90;27.69;101065.00;7366140;19;20485;-59
2023/08/20 14:41:26;;;;;;;0.10;0.10;;;;;;;35.00;29.26;101054.75;7367663;19;20125;-58
2023/08/20 14:43:52;;;;;;;0.10;0.10;;;;;;;35.12;28.30;101057.84;7367731;19;20125;-58
2023/08/20 14:46:17;;;;;;;0.10;0.10;;;;;;;35.23;26.83;101060.94;7362122;19;20010;-57
2023/08/20 14:48:43;;;;;;;0.00;0.00;;;;;;;35.34;26.43;101063.19;7364129;19;20351;-59
2023/08/20 14:51:08;;;;;;;0.10;0.10;;;;;;;35.44;27.79;101056.63;7365447;19;20015;-58
2023/08/20 14:53:34;;;;;;;0.10;0.10;;;;;;;35.42;27.02;101053.25;7363368;19;21035;-58
2023/08/20 14:55:59;;;;;;;0.10;0.10;;;;;;;35.56;26.89;101057.84;7365421;19;20019;-58
2023/08/20 14:58:25;;;;;;;0.10;0.10;;;;;;;35.61;27.51;101058.97;7371820;19;20774;-59
2023/08/20 15:00:50;;;;;;;0.10;0.10;;;;;;;35.65;26.31;101061.31;7362557;19;20014;-59
2023/08/20 15:03:16;;;;;;;0.10;0.10;;;;;;;35.66;27.11;101055.69;7364377;19;20015;-58
2023/08/20 15:05:42;;;;;;;0.10;0.10;;;;;;;35.71;27.54;101047.78;7361699;19;20025;-58
2023/08/20 15:08:07;;;;;;;0.10;0.10;;;;;;;35.91;27.51;101053.47;7363705;19;20449;-58
2023/08/20 15:10:32;;;;;;;0.10;0.10;;;;;;;36.00;27.10;101035.19;7365078;19;20015;-58
2023/08/20 15:12:58;;;;;;;0.10;0.10;;;;;;;36.22;28.44;101045.03;7365122;19;20018;-58
2023/08/20 15:15:24;;;;;;;0.10;0.10;;;;;;;36.38;27.29;101035.75;7363944;19;20029;-59
2023/08/20 15:17:53;;;;;;;0.10;0.10;;;;;;;36.52;27.37;101039.47;7365486;19;20021;-58
2023/08/20 15:20:18;;;;;;;0.13;0.13;;;;;;;36.69;25.99;101049.00;7362352;19;20015;-59
2023/08/20 15:22:44;;;;;;;0.20;0.20;;;;;;;36.73;25.72;101042.13;7363215;19;20011;-59
2023/08/20 15:25:12;;;;;;;0.10;0.10;;;;;;;36.82;25.29;101046.41;7366518;19;20090;-57
2023/08/20 15:27:38;;;;;;;0.10;0.10;;;;;;;36.75;24.72;101029.19;7359969;19;21161;-58
2023/08/20 15:30:05;;;;;;;0.10;0.10;;;;;;;36.80;24.94;101032.16;7357109;19;20025;-59
2023/08/20 15:32:31;;;;;;;0.10;0.10;;;;;;;36.73;25.47;101050.31;7358912;19;20013;-59
2023/08/20 15:34:56;;;;;;;0.10;0.10;;;;;;;36.58;25.58;101039.50;7362809;19;20010;-57
2023/08/20 15:37:22;;;;;;;0.10;0.10;;;;;;;36.46;26.14;101046.53;7358495;19;21077;-58
2023/08/20 15:39:47;;;;;;;0.10;0.10;;;;;;;36.30;25.83;101039.47;7358661;19;20018;-57
2023/08/20 15:42:13;;;;;;;0.10;0.10;;;;;;;36.19;26.38;101039.13;7361487;19;20015;-59
2023/08/20 15:44:39;;;;;;;0.10;0.10;;;;;;;36.02;26.33;101033.09;7349730;19;20018;-58
2023/08/20 15:47:05;;;;;;;0.10;0.10;;;;;;;35.92;26.24;101038.00;7360746;19;20573;-58
2023/08/20 15:49:30;;;;;;;0.10;0.10;;;;;;;35.81;26.73;101037.47;7363991;19;20015;-58
2023/08/20 15:51:56;;;;;;;0.10;0.10;;;;;;;35.76;26.73;101026.31;7362694;19;20003;-58
2023/08/20 15:54:21;;;;;;;0.10;0.10;;;;;;;35.72;27.70;101030.44;7359083;19;20019;-54
2023/08/20 15:56:47;;;;;;;0.10;0.10;;;;;;;35.70;26.56;101035.25;7364530;19;20022;-54
2023/08/20 15:59:12;;;;;;;0.10;0.10;;;;;;;35.71;27.42;101042.38;7361434;19;20010;-54
2023/08/20 16:01:38;;;;;;;0.10;0.10;;;;;;;35.67;27.97;101038.34;7358033;19;20015;-53
2023/08/20 16:04:04;;;;;;;;;;;;;;;35.83;29.91;101053.56;7365494;19;20045;-55
2023/08/20 16:06:29;;;;;;;0.10;0.10;;;;;;;35.68;27.71;101042.72;7363024;19;20659;-55
2023/08/20 16:08:54;;;;;;;0.10;0.10;;;;;;;35.55;27.61;101029.00;7362954;19;20010;-54
2023/08/20 16:11:20;;;;;;;0.10;0.10;;;;;;;35.42;27.72;101036.94;7362957;19;20950;-54
2023/08/20 16:13:45;;;;;;;0.00;0.00;;;;;;;35.30;27.80;101032.00;7363601;19;20010;-54
2023/08/20 16:16:15;;;;;;;0.10;0.10;;;;;;;35.33;28.20;101060.63;7362798;19;20350;-54
2023/08/20 16:18:42;;;;;;;0.10;0.10;;;;;;;35.22;28.42;101042.94;7358544;19;20043;-54
2023/08/20 16:21:07;;;;;;;;;;;;;;;35.20;29.81;101045.03;7363913;19;20017;-54
2023/08/20 16:23:32;;;;;;;;;;;;;;;35.09;29.66;101050.94;7359865;19;20395;-54
2023/08/20 16:25:58;;;;;;;0.10;0.10;;;;;;;34.82;27.62;101060.50;7362984;19;19930;-54
2023/08/20 16:28:24;;;;;;;0.10;0.10;;;;;;;34.58;27.44;101057.00;7359487;19;20003;-53
2023/08/20 16:30:50;;;;;;;0.10;0.10;;;;;;;34.44;27.15;101054.22;7366394;19;20442;-55
2023/08/20 16:33:16;;;;;;;0.00;0.00;;;;;;;34.25;28.72;101055.53;7371728;19;20033;-54
2023/08/20 16:35:48;;;;;;;0.00;0.00;;;;;;;34.16;28.70;101068.31;7367808;19;20006;-54
2023/08/20 16:38:14;;;;;;;0.00;0.00;;;;;;;33.98;28.97;101067.75;7368672;19;20764;-53
2023/08/20 16:40:39;;;;;;;0.10;0.10;;;;;;;33.86;29.36;101061.00;7369417;19;20006;-55
2023/08/20 16:43:05;;;;;;;0.10;0.10;;;;;;;33.72;30.30;101059.94;7368789;19;20014;-54
2023/08/20 16:45:31;;;;;;;0.08;0.08;;;;;;;33.59;29.60;101060.47;7368132;19;20018;-54
2023/08/20 16:47:56;;;;;;;0.00;0.00;;;;;;;33.45;30.69;101069.34;7368909;19;20118;-54
2023/08/20 16:50:22;;;;;;;0.10;0.10;;;;;;;33.29;29.98;101071.06;7370294;19;20010;-54
2023/08/20 16:52:47;;;;;;;0.10;0.10;;;;;;;33.17;30.56;101068.91;7370921;19;20022;-55
2023/08/20 16:55:13;;;;;;;0.03;0.03;;;;;;;33.07;30.80;101077.22;7362942;19;20011;-53
2023/08/20 16:57:39;;;;;;;0.10;0.10;;;;;;;32.92;30.41;101073.53;7370487;19;20015;-54
2023/08/20 17:00:08;;;;;;;0.00;0.00;;;;;;;32.85;30.17;101075.19;7368644;19;20014;-53
2023/08/20 17:02:35;;;;;;;0.10;0.10;;;;;;;32.72;29.99;101081.97;7369842;19;20025;-54
2023/08/20 17:05:00;;;;;;;;;;;;;;;32.61;31.91;101086.88;7369890;19;20533;-55
2023/08/20 17:07:26;;;;;;;0.10;0.10;;;;;;;32.41;31.90;101070.13;7369626;19;19929;-53
2023/08/20 17:09:51;;;;;;;0.00;0.00;;;;;;;32.30;31.97;101074.00;7371120;19;20007;-52
2023/08/20 17:12:16;;;;;;;0.10;0.10;;;;;;;32.24;31.27;101091.72;7365227;19;20010;-55
2023/08/20 17:14:42;;;;;;;0.10;0.10;;;;;;;32.16;31.86;101072.78;7365543;19;20006;-54
2023/08/20 17:17:07;;;;;;;0.10;0.10;;;;;;;32.08;31.82;101063.81;7367432;19;20637;-54
2023/08/20 17:19:33;;;;;;;0.10;0.10;;;;;;;32.03;32.01;101067.00;7369793;19;20010;-55
2023/08/20 17:21:58;;;;;;;0.10;0.10;;;;;;;32.05;31.97;101066.84;7368419;19;20010;-52
2023/08/20 17:24:23;;;;;;;0.03;0.03;;;;;;;32.02;32.42;101076.13;7370237;19;20445;-52
2023/08/20 17:26:49;;;;;;;0.00;0.00;;;;;;;32.06;31.97;101066.69;7366019;19;20014;-54
2023/08/20 17:29:14;;;;;;;0.07;0.07;;;;;;;32.05;31.65;101070.41;7365678;19;20091;-53
2023/08/20 17:31:39;;;;;;;0.10;0.10;;;;;;;32.02;32.31;101070.72;7364334;19;20121;-53
2023/08/20 17:34:05;;;;;;;0.10;0.10;;;;;;;32.01;31.43;101074.44;7366251;19;20011;-55
2023/08/20 17:36:32;;;;;;;0.10;0.10;;;;;;;31.95;31.74;101075.09;7363131;19;20010;-55
2023/08/20 17:38:58;;;;;;;0.00;0.00;;;;;;;31.83;31.86;101081.81;7360080;19;20037;-54
2023/08/20 17:41:23;;;;;;;0.00;0.00;;;;;;;31.70;32.14;101076.84;7365443;19;20003;-55
2023/08/20 17:43:48;;;;;;;0.10;0.10;;;;;;;31.58;33.12;101088.94;7369363;19;20375;-55
2023/08/20 17:46:14;;;;;;;0.10;0.10;;;;;;;31.49;33.02;101085.38;7363363;19;20010;-55
2023/08/20 17:48:40;;;;;;;0.00;0.00;;;;;;;31.41;32.93;101104.22;7365593;19;20011;-54
2023/08/20 17:51:05;;;;;;;0.03;0.03;;;;;;;31.32;32.54;101084.44;7369706;19;20010;-54
2023/08/20 17:53:30;;;;;;;0.10;0.10;;;;;;;31.22;33.71;101084.50;7364333;19;20069;-53
2023/08/20 17:55:56;;;;;;;0.00;0.00;;;;;;;31.13;33.32;101084.66;7363468;19;20580;-53
2023/08/20 17:58:22;;;;;;;0.10;0.10;;;;;;;31.00;33.28;101098.53;7364371;19;20014;-51
2023/08/20 18:00:48;;;;;;;0.07;0.07;;;;;;;30.84;33.74;101091.19;7368053;19;20019;-53
2023/08/20 18:03:16;;;;;;;0.00;0.00;;;;;;;30.63;34.37;101078.00;7367241;19;20481;-53
2023/08/20 18:05:44;;;;;;;0.00;0.00;;;;;;;30.49;34.58;101092.03;7362450;19;20038;-52
2023/08/20 18:08:10;;;;;;;0.00;0.00;;;;;;;30.34;34.21;101098.97;7365302;19;20699;-53
2023/08/20 18:10:36;;;;;;;0.03;0.03;;;;;;;30.18;34.52;101095.13;7362258;19;20018;-53
2023/08/20 18:13:03;;;;;;;0.00;0.00;;;;;;;30.04;34.59;101092.91;7367322;19;20041;-54
2023/08/20 18:15:29;;;;;;;0.00;0.00;;;;;;;29.91;35.29;101103.22;7365501;19;20022;-53
2023/08/20 18:17:54;;;;;;;0.10;0.10;;;;;;;29.81;34.81;101097.03;7366130;19;20018;-54
2023/08/20 18:20:20;;;;;;;0.10;0.10;;;;;;;29.68;35.01;101114.34;7364175;19;20049;-52
2023/08/20 18:22:46;;;;;;;0.00;0.00;;;;;;;29.58;35.34;101108.19;7366530;19;20033;-52
2023/08/20 18:25:11;;;;;;;0.10;0.10;;;;;;;29.49;35.32;101106.34;7366522;19;20017;-53
2023/08/20 18:27:37;;;;;;;0.10;0.10;;;;;;;29.37;35.57;101110.22;7366255;19;20399;-54
2023/08/20 18:30:04;;;;;;;0.00;0.00;;;;;;;29.24;35.92;101112.38;7365227;19;20007;-54
2023/08/20 18:32:30;;;;;;;0.10;0.10;;;;;;;29.10;36.16;101119.91;7363340;19;20014;-55
2023/08/20 18:34:55;;;;;;;0.00;0.00;;;;;;;28.98;36.52;101121.06;7357715;19;20034;-54
2023/08/20 18:37:21;;;;;;;0.00;0.00;;;;;;;28.85;36.15;101120.50;7361339;19;20014;-54
2023/08/20 18:39:46;;;;;;;0.10;0.10;;;;;;;28.72;36.86;101112.72;7361945;19;20023;-53
2023/08/20 18:42:12;;;;;;;0.00;0.00;;;;;;;28.56;37.00;101113.28;7355721;19;20010;-51
2023/08/20 18:44:37;;;;;;;0.08;0.08;;;;;;;28.47;37.08;101121.34;7363743;19;20040;-56
2023/08/20 18:47:03;;;;;;;0.10;0.10;;;;;;;28.32;37.28;101123.56;7361001;19;20010;-54
2023/08/20 18:49:28;;;;;;;0.10;0.10;;;;;;;28.18;38.15;101122.09;7361760;19;20017;-54
2023/08/20 18:51:53;;;;;;;0.10;0.10;;;;;;;28.03;37.46;101124.38;7362364;19;20007;-54
2023/08/20 18:54:19;;;;;;;0.08;0.08;;;;;;;27.87;37.76;101118.66;7357286;19;20021;-54
2023/08/20 18:56:44;;;;;;;0.10;0.10;;;;;;;27.71;38.48;101134.41;7363814;19;20031;-52
2023/08/20 18:59:10;;;;;;;0.10;0.10;;;;;;;27.55;38.67;101135.72;7361180;19;20014;-51
2023/08/20 19:01:35;;;;;;;0.10;0.10;;;;;;;27.38;38.62;101139.03;7360771;19;20006;-55
2023/08/20 19:04:00;;;;;;;0.00;0.00;;;;;;;27.21;39.11;101142.31;7359271;19;20003;-53
2023/08/20 19:06:26;;;;;;;0.10;0.10;;;;;;;27.02;39.71;101143.88;7359742;19;20053;-56
2023/08/20 19:08:52;;;;;;;0.00;0.00;;;;;;;26.83;40.29;101143.72;7363593;19;20014;-54
2023/08/20 19:11:17;;;;;;;0.10;0.10;;;;;;;26.65;40.32;101149.63;7359527;19;20011;-54
2023/08/20 19:13:42;;;;;;;0.10;0.10;;;;;;;26.49;40.77;101151.88;7353420;19;20007;-55
2023/08/20 19:16:08;;;;;;;0.10;0.10;;;;;;;26.37;41.16;101152.88;7358858;19;20480;-55
2023/08/20 19:18:33;;;;;;;0.10;0.10;;;;;;;26.26;41.27;101152.91;7362206;19;20425;-59
2023/08/20 19:20:59;;;;;;;0.10;0.10;;;;;;;26.09;41.89;101147.06;7348551;19;20006;-61
2023/08/20 19:23:26;;;;;;;0.10;0.10;;;;;;;26.02;41.80;101153.06;7362083;19;19999;-60
2023/08/20 19:25:52;;;;;;;0.10;0.10;;;;;;;25.88;42.09;101151.47;7361986;19;20046;-60
2023/08/20 19:28:18;;;;;;;0.10;0.10;;;;;;;25.73;42.49;101158.03;7325771;19;20017;-59
2023/08/20 19:30:49;;;;;;;0.10;0.10;;;;;;;25.50;42.34;101147.31;7359395;19;20346;-60
2023/08/20 19:33:15;;;;;;;0.10;0.10;;;;;;;25.33;42.73;101143.28;7350368;19;20029;-60
2023/08/20 19:35:41;;;;;;;0.10;0.10;;;;;;;25.25;42.95;101164.41;7351445;19;20014;-59
2023/08/20 19:38:07;;;;;;;0.10;0.10;;;;;;;25.15;43.80;101168.78;7360629;19;20021;-59
2023/08/20 19:40:37;;;;;;;0.00;0.00;;;;;;;25.03;43.21;101165.16;7363162;19;20006;-59
2023/08/20 19:43:03;;;;;;;0.00;0.00;;;;;;;24.81;43.86;101157.06;7359425;19;22150;-59
2023/08/20 19:45:29;;;;;;;0.00;0.00;;;;;;;24.77;44.30;101175.16;7355987;19;20003;-60
2023/08/20 19:47:55;;;;;;;0.00;0.00;;;;;;;24.69;44.38;101182.03;7359169;19;20019;-59
2023/08/20 19:50:20;;;;;;;0.10;0.10;;;;;;;24.56;44.88;101196.28;7359786;19;20087;-59
2023/08/20 19:52:46;;;;;;;0.10;0.10;;;;;;;24.36;45.26;101180.88;7341984;19;20018;-59
2023/08/20 19:55:11;;;;;;;0.03;0.03;;;;;;;24.38;45.08;101192.31;7356687;19;20015;-59
2023/08/20 19:57:37;;;;;;;0.10;0.10;;;;;;;24.28;45.46;101196.56;7359865;19;20029;-60
2023/08/20 20:00:08;;;;;;;0.00;0.00;;;;;;;24.17;45.32;101196.47;7361570;19;20014;-59
2023/08/20 20:02:33;;;;;;;0.00;0.00;;;;;;;24.07;45.54;101207.81;7348525;19;20094;-59
2023/08/20 20:04:59;;;;;;;0.10;0.10;;;;;;;23.98;45.56;101211.16;7353458;19;20006;-60
2023/08/20 20:07:24;;;;;;;0.10;0.10;;;;;;;23.92;46.16;101213.38;7360693;19;20021;-59
2023/08/20 20:09:50;;;;;;;0.00;0.00;;;;;;;23.85;45.92;101215.63;7359788;19;20023;-60
2023/08/20 20:12:15;;;;;;;0.00;0.00;;;;;;;23.76;46.08;101208.28;7365424;19;20074;-59
2023/08/20 20:14:40;;;;;;;0.10;0.10;;;;;;;23.68;46.33;101218.63;7360427;19;20018;-59
2023/08/20 20:17:06;;;;;;;0.00;0.00;;;;;;;23.56;46.65;101215.81;7362128;19;20057;-60
2023/08/20 20:19:31;;;;;;;0.05;0.05;;;;;;;23.46;46.62;101227.22;7364510;19;20014;-60
2023/08/20 20:21:57;;;;;;;0.10;0.10;;;;;;;23.37;46.80;101234.03;7366669;19;20021;-59
2023/08/20 20:24:22;;;;;;;0.10;0.10;;;;;;;23.29;46.86;101231.03;7362748;19;20019;-58
2023/08/20 20:26:48;;;;;;;0.10;0.10;;;;;;;23.25;47.34;101235.69;7360954;19;20037;-59
2023/08/20 20:29:13;;;;;;;0.00;0.00;;;;;;;23.19;47.43;101241.44;7366626;19;20100;-58
2023/08/20 20:31:38;;;;;;;0.10;0.10;;;;;;;23.09;47.59;101234.19;7360110;19;20002;-59
2023/08/20 20:34:04;;;;;;;0.10;0.10;;;;;;;23.13;47.94;101249.84;7364012;19;20121;-58
2023/08/20 20:36:29;;;;;;;0.10;0.10;;;;;;;23.09;47.52;101251.00;7367004;19;20094;-59
2023/08/20 20:38:55;;;;;;;0.10;0.10;;;;;;;23.02;47.31;101239.91;7361755;19;20790;-58
2023/08/20 20:41:20;;;;;;;0.08;0.08;;;;;;;22.99;47.77;101249.91;7363943;19;20034;-58
2023/08/20 20:43:45;;;;;;;0.10;0.10;;;;;;;22.93;47.76;101237.84;7362465;19;20011;-58
2023/08/20 20:46:11;;;;;;;0.03;0.03;;;;;;;22.85;47.50;101240.13;7361691;19;20025;-58
2023/08/20 20:48:36;;;;;;;0.03;0.03;;;;;;;22.77;47.82;101234.47;7355679;19;20019;-59
2023/08/20 20:51:03;;;;;;;0.00;0.00;;;;;;;22.65;47.97;101236.09;7368478;19;20893;-59
2023/08/20 20:53:28;;;;;;;0.10;0.10;;;;;;;22.63;48.18;101242.50;7364295;19;20035;-58
2023/08/20 20:55:53;;;;;;;0.10;0.10;;;;;;;22.56;48.28;101239.38;7363290;19;20014;-59
2023/08/20 20:58:19;;;;;;;0.00;0.00;;;;;;;22.50;48.40;101232.63;7365077;19;20576;-59
2023/08/20 21:00:45;;;;;;;0.10;0.10;;;;;;;22.45;48.64;101229.38;7347746;19;20117;-59
2023/08/20 21:03:11;;;;;;;0.00;0.00;;;;;;;22.41;48.77;101241.22;7365005;19;20014;-59
2023/08/20 21:05:45;;;;;;;0.10;0.10;;;;;;;22.38;47.60;101241.41;7365128;19;20018;-59
2023/08/20 21:08:11;;;;;;;0.10;0.10;;;;;;;22.36;48.74;101239.81;7357984;19;20086;-59
2023/08/20 21:10:36;;;;;;;0.03;0.03;;;;;;;22.24;48.74;101233.44;7364160;19;20003;-59
2023/08/20 21:13:04;;;;;;;0.00;0.00;;;;;;;22.27;48.92;101243.88;7363987;19;20010;-59
2023/08/20 21:15:30;;;;;;;0.10;0.10;;;;;;;22.23;49.38;101259.19;7361597;19;20132;-59
2023/08/20 21:17:55;;;;;;;0.00;0.00;;;;;;;22.20;49.27;101254.06;7364565;19;20014;-59
2023/08/20 21:20:20;;;;;;;0.00;0.00;;;;;;;22.17;49.02;101248.94;7363595;19;20019;-59
2023/08/20 21:22:46;;;;;;;0.00;0.00;;;;;;;22.15;49.29;101253.50;7361778;19;20005;-59
2023/08/20 21:25:11;;;;;;;0.00;0.00;;;;;;;22.11;49.33;101246.66;7360385;19;20031;-59
2023/08/20 21:27:36;;;;;;;0.00;0.00;;;;;;;22.05;49.67;101251.44;7364565;19;20732;-58
2023/08/20 21:30:02;;;;;;;0.00;0.00;;;;;;;22.01;49.50;101250.81;7365592;19;20010;-59
2023/08/20 21:32:28;;;;;;;0.10;0.10;;;;;;;21.95;50.24;101254.69;7363969;19;20524;-59
2023/08/20 21:34:53;;;;;;;0.00;0.00;;;;;;;21.93;49.97;101258.38;7362985;19;20018;-59
2023/08/20 21:37:18;;;;;;;0.10;0.10;;;;;;;21.87;50.28;101254.31;7362808;19;20002;-59
2023/08/20 21:39:44;;;;;;;0.10;0.10;;;;;;;21.84;50.41;101258.94;7365182;19;20015;-59
2023/08/20 21:42:10;;;;;;;0.10;0.10;;;;;;;21.73;50.65;101246.31;7363882;19;20908;-59
2023/08/20 21:44:35;;;;;;;0.10;0.10;;;;;;;21.75;50.29;101255.91;7363965;19;20645;-59
2023/08/20 21:47:18;;;;;;;0.00;0.00;;;;;;;21.64;50.14;101241.53;7360260;19;20827;-59
2023/08/20 21:49:43;;;;;;;0.03;0.03;;;;;;;21.67;50.55;101246.69;7361662;19;20022;-60
2023/08/20 21:52:09;;;;;;;0.00;0.00;;;;;;;21.61;50.80;101247.06;7363861;19;20010;-59
2023/08/20 21:54:34;;;;;;;0.10;0.10;;;;;;;21.59;51.30;101249.78;7361695;19;20011;-59
2023/08/20 21:57:00;;;;;;;0.10;0.10;;;;;;;21.55;51.42;101242.13;7364229;19;20018;-59
2023/08/20 21:59:25;;;;;;;0.10;0.10;;;;;;;21.52;50.99;101247.59;7362390;19;20553;-59
2023/08/20 22:01:50;;;;;;;0.00;0.00;;;;;;;21.47;51.31;101246.06;7363253;19;20006;-60
2023/08/20 22:04:16;;;;;;;0.00;0.00;;;;;;;21.45;51.62;101242.66;7359196;19;20021;-59
2023/08/20 22:06:41;;;;;;;0.10;0.10;;;;;;;21.43;51.60;101247.19;7364926;19;20010;-58
2023/08/20 22:09:08;;;;;;;0.08;0.08;;;;;;;21.40;52.02;101244.75;7359553;19;20597;-59
2023/08/20 22:11:33;;;;;;;0.10;0.10;;;;;;;21.37;51.85;101234.28;7362901;19;20569;-59
2023/08/20 22:13:59;;;;;;;0.00;0.00;;;;;;;21.37;51.37;101244.91;7359238;19;20037;-59
2023/08/20 22:16:24;;;;;;;0.00;0.00;;;;;;;21.35;51.92;101244.16;7360691;19;20709;-60
2023/08/20 22:18:50;;;;;;;0.00;0.00;;;;;;;21.33;51.91;101243.38;7352856;19;20018;-59
2023/08/20 22:21:15;;;;;;;0.00;0.00;;;;;;;21.33;52.22;101251.34;7362538;19;20018;-59
2023/08/20 22:23:40;;;;;;;0.10;0.10;;;;;;;21.31;51.81;101249.75;7356147;19;20021;-59
2023/08/20 22:26:06;;;;;;;0.10;0.10;;;;;;;21.24;51.88;101249.22;7364041;19;20010;-59
2023/08/20 22:28:31;;;;;;;0.10;0.10;;;;;;;21.23;52.49;101255.44;7360810;19;20038;-59
2023/08/20 22:30:56;;;;;;;0.10;0.10;;;;;;;21.19;52.47;101245.97;7354576;19;19998;-59
2023/08/20 22:33:22;;;;;;;0.10;0.10;;;;;;;21.18;52.93;101249.56;7358768;19;20025;-59
2023/08/20 22:35:51;;;;;;;0.10;0.10;;;;;;;21.09;52.07;101242.16;7360499;19;20507;-59
2023/08/20 22:38:17;;;;;;;0.10;0.10;;;;;;;21.14;52.80;101258.66;7361334;19;20023;-59
2023/08/20 22:40:42;;;;;;;0.10;0.10;;;;;;;21.13;53.24;101257.78;7361246;19;20889;-59
2023/08/20 22:43:08;;;;;;;0.10;0.10;;;;;;;21.12;52.83;101255.22;7361901;19;20014;-59
2023/08/20 22:45:34;;;;;;;0.10;0.10;;;;;;;21.12;53.27;101244.59;7360351;19;20022;-59
2023/08/20 22:48:00;;;;;;;0.10;0.10;;;;;;;21.09;53.68;101250.13;7353333;19;20018;-59
2023/08/20 22:50:29;;;;;;;0.00;0.00;;;;;;;21.10;53.34;101249.16;7360333;19;20018;-59
2023/08/20 22:52:58;;;;;;;0.10;0.10;;;;;;;21.00;53.20;101246.19;7363027;19;20017;-59
2023/08/20 22:55:24;;;;;;;0.08;0.08;;;;;;;21.07;53.48;101247.53;7357099;19;20627;-59
2023/08/20 22:57:50;;;;;;;0.00;0.00;;;;;;;21.08;53.91;101248.38;7359866;19;20021;-59
2023/08/20 23:00:17;;;;;;;0.00;0.00;;;;;;;21.08;53.74;101248.38;7360265;19;20014;-60
2023/08/20 23:02:43;;;;;;;0.10;0.10;;;;;;;21.08;53.49;101249.22;7361308;19;20094;-59
2023/08/20 23:05:08;;;;;;;0.00;0.00;;;;;;;21.05;54.56;101229.97;7361699;19;20029;-59
2023/08/20 23:07:34;;;;;;;0.10;0.10;;;;;;;21.11;54.28;101232.28;7363136;19;20485;-58
2023/08/20 23:09:59;;;;;;;0.10;0.10;;;;;;;21.02;54.44;101227.50;7359333;19;20018;-59
2023/08/20 23:12:25;;;;;;;0.00;0.00;;;;;;;21.10;54.36;101241.19;7361517;19;20113;-58
2023/08/20 23:14:53;;;;;;;0.10;0.10;;;;;;;21.09;53.49;101247.47;7359706;19;20009;-59